sensor_id;sensor_type;location;lat;lon;timestamp;P1;durP1;ratioP1;P2;durP2;ratioP2
3895;SDS011;1963;48.804;8.358;2022-07-12T00:02:24;7.37;;;3.37;;
3895;SDS011;1963;48.804;8.358;2022-07-12T00:04:52;4.57;;;3.10;;
3895;SDS011;1963;48.804;8.358;2022-07-12T00:07:20;3.03;;;2.50;;
3895;SDS011;1963;48.804;8.358;2022-07-12T00:09:52;3.20;;;2.40;;
3895;SDS011;1963;48.804;8.358;2022-07-12T00:12:20;6.20;;;3.40;;
3895;SDS011;1963;48.804;8.358;2022-07-12T00:14:50;4.33;;;2.90;;
3895;SDS011;1963;48.804;8.358;2022-07-12T00:17:19;4.30;;;3.43;;
3895;SDS011;1963;48.804;8.358;2022-07-12T00:19:47;3.90;;;3.30;;
3895;SDS011;1963;48.804;8.358;2022-07-12T00:22:15;5.37;;;3.63;;
3895;SDS011;1963;48.804;8.358;2022-07-12T00:24:42;4.67;;;3.10;;
3895;SDS011;1963;48.804;8.358;2022-07-12T00:27:10;3.43;;;3.13;;
3895;SDS011;1963;48.804;8.358;2022-07-12T00:29:38;6.13;;;3.23;;
3895;SDS011;1963;48.804;8.358;2022-07-12T00:32:08;3.90;;;3.50;;
3895;SDS011;1963;48.804;8.358;2022-07-12T00:34:36;4.40;;;2.87;;
3895;SDS011;1963;48.804;8.358;2022-07-12T00:37:04;3.37;;;3.07;;
3895;SDS011;1963;48.804;8.358;2022-07-12T00:39:32;2.97;;;2.67;;
3895;SDS011;1963;48.804;8.358;2022-07-12T00:42:00;3.73;;;3.40;;
3895;SDS011;1963;48.804;8.358;2022-07-12T00:44:27;5.60;;;3.83;;
3895;SDS011;1963;48.804;8.358;2022-07-12T00:46:57;3.90;;;3.43;;
3895;SDS011;1963;48.804;8.358;2022-07-12T00:49:27;3.67;;;3.33;;
3895;SDS011;1963;48.804;8.358;2022-07-12T00:51:55;3.73;;;3.20;;
3895;SDS011;1963;48.804;8.358;2022-07-12T00:54:23;3.53;;;3.03;;
3895;SDS011;1963;48.804;8.358;2022-07-12T00:56:51;8.50;;;3.27;;
3895;SDS011;1963;48.804;8.358;2022-07-12T00:59:19;4.90;;;3.47;;
3895;SDS011;1963;48.804;8.358;2022-07-12T01:01:47;4.73;;;3.37;;
3895;SDS011;1963;48.804;8.358;2022-07-12T01:04:15;4.73;;;2.90;;
3895;SDS011;1963;48.804;8.358;2022-07-12T01:06:46;3.77;;;3.13;;
3895;SDS011;1963;48.804;8.358;2022-07-12T01:09:14;4.17;;;3.70;;
3895;SDS011;1963;48.804;8.358;2022-07-12T01:11:42;5.60;;;3.40;;
3895;SDS011;1963;48.804;8.358;2022-07-12T01:14:10;4.20;;;3.80;;
3895;SDS011;1963;48.804;8.358;2022-07-12T01:16:40;4.20;;;3.60;;
3895;SDS011;1963;48.804;8.358;2022-07-12T01:19:08;7.93;;;3.70;;
3895;SDS011;1963;48.804;8.358;2022-07-12T01:21:43;3.60;;;3.27;;
3895;SDS011;1963;48.804;8.358;2022-07-12T01:24:17;5.30;;;3.10;;
3895;SDS011;1963;48.804;8.358;2022-07-12T01:26:46;6.13;;;4.00;;
3895;SDS011;1963;48.804;8.358;2022-07-12T01:29:14;6.03;;;3.90;;
3895;SDS011;1963;48.804;8.358;2022-07-12T01:31:43;4.47;;;3.03;;
3895;SDS011;1963;48.804;8.358;2022-07-12T01:34:12;3.30;;;2.90;;
3895;SDS011;1963;48.804;8.358;2022-07-12T01:36:41;5.17;;;3.50;;
3895;SDS011;1963;48.804;8.358;2022-07-12T01:39:09;4.07;;;3.20;;
3895;SDS011;1963;48.804;8.358;2022-07-12T01:41:39;4.20;;;3.20;;
3895;SDS011;1963;48.804;8.358;2022-07-12T01:44:07;4.03;;;3.60;;
3895;SDS011;1963;48.804;8.358;2022-07-12T01:46:36;3.80;;;3.30;;
3895;SDS011;1963;48.804;8.358;2022-07-12T01:49:05;3.93;;;3.30;;
3895;SDS011;1963;48.804;8.358;2022-07-12T01:51:33;9.40;;;3.20;;
3895;SDS011;1963;48.804;8.358;2022-07-12T01:54:01;5.30;;;4.03;;
3895;SDS011;1963;48.804;8.358;2022-07-12T01:56:29;8.40;;;3.40;;
3895;SDS011;1963;48.804;8.358;2022-07-12T01:58:58;6.70;;;3.30;;
3895;SDS011;1963;48.804;8.358;2022-07-12T02:01:27;3.83;;;3.43;;
3895;SDS011;1963;48.804;8.358;2022-07-12T02:03:56;10.53;;;3.33;;
3895;SDS011;1963;48.804;8.358;2022-07-12T02:06:24;5.40;;;3.50;;
3895;SDS011;1963;48.804;8.358;2022-07-12T02:08:52;4.97;;;3.77;;
3895;SDS011;1963;48.804;8.358;2022-07-12T02:11:20;4.97;;;3.37;;
3895;SDS011;1963;48.804;8.358;2022-07-12T02:13:48;4.17;;;3.33;;
3895;SDS011;1963;48.804;8.358;2022-07-12T02:27:24;4.20;;;3.80;;
3895;SDS011;1963;48.804;8.358;2022-07-12T02:29:53;6.50;;;4.00;;
3895;SDS011;1963;48.804;8.358;2022-07-12T02:32:21;3.67;;;3.33;;
3895;SDS011;1963;48.804;8.358;2022-07-12T02:34:48;5.23;;;4.17;;
3895;SDS011;1963;48.804;8.358;2022-07-12T02:37:16;5.33;;;4.00;;
3895;SDS011;1963;48.804;8.358;2022-07-12T02:39:44;6.47;;;4.27;;
3895;SDS011;1963;48.804;8.358;2022-07-12T02:42:16;4.23;;;3.83;;
3895;SDS011;1963;48.804;8.358;2022-07-12T02:44:44;6.07;;;4.10;;
3895;SDS011;1963;48.804;8.358;2022-07-12T02:47:12;4.43;;;3.40;;
3895;SDS011;1963;48.804;8.358;2022-07-12T02:49:40;4.70;;;4.10;;
3895;SDS011;1963;48.804;8.358;2022-07-12T02:52:08;4.10;;;3.70;;
3895;SDS011;1963;48.804;8.358;2022-07-12T02:54:36;5.50;;;4.43;;
3895;SDS011;1963;48.804;8.358;2022-07-12T02:57:04;4.10;;;3.70;;
3895;SDS011;1963;48.804;8.358;2022-07-12T02:59:33;6.03;;;4.10;;
3895;SDS011;1963;48.804;8.358;2022-07-12T03:02:04;6.33;;;4.67;;
3895;SDS011;1963;48.804;8.358;2022-07-12T03:04:33;4.63;;;3.90;;
3895;SDS011;1963;48.804;8.358;2022-07-12T03:07:00;4.60;;;3.87;;
3895;SDS011;1963;48.804;8.358;2022-07-12T03:09:28;4.70;;;3.67;;
3895;SDS011;1963;48.804;8.358;2022-07-12T03:11:56;4.63;;;3.43;;
3895;SDS011;1963;48.804;8.358;2022-07-12T03:14:24;4.17;;;3.23;;
3895;SDS011;1963;48.804;8.358;2022-07-12T03:16:54;4.13;;;3.73;;
3895;SDS011;1963;48.804;8.358;2022-07-12T03:19:22;4.07;;;3.63;;
3895;SDS011;1963;48.804;8.358;2022-07-12T03:21:50;4.20;;;3.80;;
3895;SDS011;1963;48.804;8.358;2022-07-12T03:24:18;4.40;;;3.60;;
3895;SDS011;1963;48.804;8.358;2022-07-12T03:26:45;4.90;;;3.43;;
3895;SDS011;1963;48.804;8.358;2022-07-12T03:29:13;6.20;;;3.60;;
3895;SDS011;1963;48.804;8.358;2022-07-12T03:31:41;4.87;;;4.03;;
3895;SDS011;1963;48.804;8.358;2022-07-12T03:34:11;4.40;;;3.37;;
3895;SDS011;1963;48.804;8.358;2022-07-12T03:36:39;16.03;;;4.03;;
3895;SDS011;1963;48.804;8.358;2022-07-12T03:39:07;4.40;;;4.00;;
3895;SDS011;1963;48.804;8.358;2022-07-12T03:41:35;4.00;;;3.20;;
3895;SDS011;1963;48.804;8.358;2022-07-12T03:44:03;10.63;;;3.70;;
3895;SDS011;1963;48.804;8.358;2022-07-12T03:46:32;5.53;;;4.30;;
3895;SDS011;1963;48.804;8.358;2022-07-12T03:49:01;6.80;;;3.97;;
3895;SDS011;1963;48.804;8.358;2022-07-12T03:51:31;4.30;;;3.60;;
3895;SDS011;1963;48.804;8.358;2022-07-12T03:53:59;5.30;;;3.40;;
3895;SDS011;1963;48.804;8.358;2022-07-12T03:56:27;4.07;;;2.83;;
3895;SDS011;1963;48.804;8.358;2022-07-12T03:59:12;7.53;;;3.73;;
3895;SDS011;1963;48.804;8.358;2022-07-12T04:01:40;4.50;;;3.67;;
3895;SDS011;1963;48.804;8.358;2022-07-12T04:04:09;4.20;;;3.33;;
3895;SDS011;1963;48.804;8.358;2022-07-12T04:06:39;4.97;;;3.30;;
3895;SDS011;1963;48.804;8.358;2022-07-12T04:09:07;4.57;;;3.10;;
3895;SDS011;1963;48.804;8.358;2022-07-12T04:11:35;4.17;;;3.03;;
3895;SDS011;1963;48.804;8.358;2022-07-12T04:14:03;3.83;;;3.53;;
3895;SDS011;1963;48.804;8.358;2022-07-12T04:16:31;4.70;;;3.57;;
3895;SDS011;1963;48.804;8.358;2022-07-12T04:18:59;5.23;;;3.37;;
3895;SDS011;1963;48.804;8.358;2022-07-12T04:21:27;9.40;;;3.43;;
3895;SDS011;1963;48.804;8.358;2022-07-12T04:23:56;3.10;;;2.80;;
3895;SDS011;1963;48.804;8.358;2022-07-12T04:26:26;4.20;;;2.77;;
3895;SDS011;1963;48.804;8.358;2022-07-12T04:28:54;4.57;;;3.10;;
3895;SDS011;1963;48.804;8.358;2022-07-12T04:31:25;4.37;;;3.63;;
3895;SDS011;1963;48.804;8.358;2022-07-12T04:33:53;3.13;;;2.83;;
3895;SDS011;1963;48.804;8.358;2022-07-12T04:36:21;5.30;;;3.20;;
3895;SDS011;1963;48.804;8.358;2022-07-12T04:38:49;5.87;;;3.03;;
3895;SDS011;1963;48.804;8.358;2022-07-12T04:41:21;3.17;;;2.70;;
3895;SDS011;1963;48.804;8.358;2022-07-12T04:44:02;3.90;;;3.00;;
3895;SDS011;1963;48.804;8.358;2022-07-12T04:46:31;3.03;;;2.70;;
3895;SDS011;1963;48.804;8.358;2022-07-12T04:49:00;3.57;;;2.60;;
3895;SDS011;1963;48.804;8.358;2022-07-12T04:51:28;3.70;;;2.70;;
3895;SDS011;1963;48.804;8.358;2022-07-12T04:53:56;4.83;;;3.20;;
3895;SDS011;1963;48.804;8.358;2022-07-12T04:56:25;3.13;;;2.53;;
3895;SDS011;1963;48.804;8.358;2022-07-12T04:58:53;3.10;;;2.80;;
3895;SDS011;1963;48.804;8.358;2022-07-12T05:01:26;3.93;;;3.53;;
3895;SDS011;1963;48.804;8.358;2022-07-12T05:03:54;3.40;;;2.27;;
3895;SDS011;1963;48.804;8.358;2022-07-12T05:06:22;6.50;;;2.13;;
3895;SDS011;1963;48.804;8.358;2022-07-12T05:08:50;4.97;;;2.23;;
3895;SDS011;1963;48.804;8.358;2022-07-12T05:11:19;4.13;;;2.13;;
3895;SDS011;1963;48.804;8.358;2022-07-12T05:13:48;8.53;;;1.93;;
3895;SDS011;1963;48.804;8.358;2022-07-12T05:16:17;4.70;;;2.20;;
3895;SDS011;1963;48.804;8.358;2022-07-12T05:18:45;3.07;;;2.37;;
3895;SDS011;1963;48.804;8.358;2022-07-12T05:21:14;2.13;;;1.90;;
3895;SDS011;1963;48.804;8.358;2022-07-12T05:23:42;11.33;;;2.17;;
3895;SDS011;1963;48.804;8.358;2022-07-12T05:26:09;3.70;;;1.87;;
3895;SDS011;1963;48.804;8.358;2022-07-12T05:28:42;9.53;;;2.13;;
3895;SDS011;1963;48.804;8.358;2022-07-12T05:31:11;2.50;;;2.17;;
3895;SDS011;1963;48.804;8.358;2022-07-12T05:33:39;4.33;;;2.17;;
3895;SDS011;1963;48.804;8.358;2022-07-12T05:36:08;3.13;;;1.90;;
3895;SDS011;1963;48.804;8.358;2022-07-12T05:38:36;2.83;;;1.80;;
3895;SDS011;1963;48.804;8.358;2022-07-12T05:41:04;2.60;;;1.73;;
3895;SDS011;1963;48.804;8.358;2022-07-12T05:43:35;2.07;;;1.60;;
3895;SDS011;1963;48.804;8.358;2022-07-12T05:46:03;2.50;;;1.90;;
3895;SDS011;1963;48.804;8.358;2022-07-12T05:48:33;6.70;;;1.67;;
3895;SDS011;1963;48.804;8.358;2022-07-12T05:51:01;3.97;;;2.10;;
3895;SDS011;1963;48.804;8.358;2022-07-12T05:53:43;3.40;;;1.73;;
3895;SDS011;1963;48.804;8.358;2022-07-12T05:56:11;2.63;;;2.00;;
3895;SDS011;1963;48.804;8.358;2022-07-12T05:58:39;2.60;;;1.90;;
3895;SDS011;1963;48.804;8.358;2022-07-12T06:01:07;4.23;;;2.17;;
3895;SDS011;1963;48.804;8.358;2022-07-12T06:03:37;3.33;;;1.40;;
3895;SDS011;1963;48.804;8.358;2022-07-12T06:06:05;2.73;;;1.87;;
3895;SDS011;1963;48.804;8.358;2022-07-12T06:08:33;2.80;;;1.60;;
3895;SDS011;1963;48.804;8.358;2022-07-12T06:11:01;1.80;;;1.50;;
3895;SDS011;1963;48.804;8.358;2022-07-12T06:13:29;2.17;;;1.50;;
3895;SDS011;1963;48.804;8.358;2022-07-12T06:15:57;2.17;;;1.97;;
3895;SDS011;1963;48.804;8.358;2022-07-12T06:18:26;3.07;;;1.80;;
3895;SDS011;1963;48.804;8.358;2022-07-12T06:20:56;5.70;;;1.30;;
3895;SDS011;1963;48.804;8.358;2022-07-12T06:23:24;4.87;;;1.60;;
3895;SDS011;1963;48.804;8.358;2022-07-12T06:25:52;5.30;;;1.40;;
3895;SDS011;1963;48.804;8.358;2022-07-12T06:28:21;4.80;;;3.30;;
3895;SDS011;1963;48.804;8.358;2022-07-12T06:30:49;9.80;;;4.80;;
3895;SDS011;1963;48.804;8.358;2022-07-12T06:33:17;1.30;;;1.20;;
3895;SDS011;1963;48.804;8.358;2022-07-12T06:35:45;3.20;;;1.77;;
3895;SDS011;1963;48.804;8.358;2022-07-12T06:38:14;2.33;;;1.57;;
3895;SDS011;1963;48.804;8.358;2022-07-12T06:40:43;4.63;;;1.47;;
3895;SDS011;1963;48.804;8.358;2022-07-12T06:43:11;4.33;;;2.10;;
3895;SDS011;1963;48.804;8.358;2022-07-12T06:45:40;4.00;;;1.27;;
3895;SDS011;1963;48.804;8.358;2022-07-12T06:48:08;3.60;;;1.77;;
3895;SDS011;1963;48.804;8.358;2022-07-12T06:50:36;3.70;;;2.50;;
3895;SDS011;1963;48.804;8.358;2022-07-12T06:53:04;2.80;;;1.83;;
3895;SDS011;1963;48.804;8.358;2022-07-12T06:55:33;3.93;;;1.30;;
3895;SDS011;1963;48.804;8.358;2022-07-12T06:58:01;1.93;;;1.37;;
3895;SDS011;1963;48.804;8.358;2022-07-12T07:00:29;1.87;;;1.00;;
3895;SDS011;1963;48.804;8.358;2022-07-12T07:02:58;6.40;;;2.40;;
3895;SDS011;1963;48.804;8.358;2022-07-12T07:05:26;11.97;;;8.17;;
3895;SDS011;1963;48.804;8.358;2022-07-12T07:07:54;2.80;;;1.53;;
3895;SDS011;1963;48.804;8.358;2022-07-12T07:10:22;2.70;;;1.30;;
3895;SDS011;1963;48.804;8.358;2022-07-12T07:12:52;2.00;;;1.30;;
3895;SDS011;1963;48.804;8.358;2022-07-12T07:15:20;1.83;;;1.10;;
3895;SDS011;1963;48.804;8.358;2022-07-12T07:17:48;1.43;;;0.90;;
3895;SDS011;1963;48.804;8.358;2022-07-12T07:20:17;1.37;;;0.80;;
3895;SDS011;1963;48.804;8.358;2022-07-12T07:22:45;1.40;;;0.70;;
3895;SDS011;1963;48.804;8.358;2022-07-12T07:25:14;1.87;;;1.03;;
3895;SDS011;1963;48.804;8.358;2022-07-12T07:27:42;1.83;;;0.70;;
3895;SDS011;1963;48.804;8.358;2022-07-12T07:30:12;2.57;;;0.73;;
3895;SDS011;1963;48.804;8.358;2022-07-12T07:32:57;1.07;;;0.57;;
3895;SDS011;1963;48.804;8.358;2022-07-12T07:35:26;1.00;;;0.60;;
3895;SDS011;1963;48.804;8.358;2022-07-12T07:37:54;0.60;;;0.40;;
3895;SDS011;1963;48.804;8.358;2022-07-12T07:40:24;0.80;;;0.60;;
3895;SDS011;1963;48.804;8.358;2022-07-12T07:42:52;1.20;;;0.67;;
3895;SDS011;1963;48.804;8.358;2022-07-12T07:45:22;1.10;;;0.60;;
3895;SDS011;1963;48.804;8.358;2022-07-12T07:47:52;1.47;;;0.60;;
3895;SDS011;1963;48.804;8.358;2022-07-12T07:50:39;0.73;;;0.57;;
3895;SDS011;1963;48.804;8.358;2022-07-12T07:53:07;4.87;;;0.97;;
3895;SDS011;1963;48.804;8.358;2022-07-12T07:55:35;0.87;;;0.50;;
3895;SDS011;1963;48.804;8.358;2022-07-12T07:58:03;1.20;;;0.60;;
3895;SDS011;1963;48.804;8.358;2022-07-12T08:00:33;5.90;;;0.70;;
3895;SDS011;1963;48.804;8.358;2022-07-12T08:03:01;3.53;;;0.70;;
3895;SDS011;1963;48.804;8.358;2022-07-12T08:05:31;2.50;;;0.80;;
3895;SDS011;1963;48.804;8.358;2022-07-12T08:07:59;2.23;;;0.60;;
3895;SDS011;1963;48.804;8.358;2022-07-12T08:10:27;0.80;;;0.50;;
3895;SDS011;1963;48.804;8.358;2022-07-12T08:12:55;1.47;;;0.80;;
3895;SDS011;1963;48.804;8.358;2022-07-12T08:15:23;3.57;;;0.60;;
3895;SDS011;1963;48.804;8.358;2022-07-12T08:17:52;6.00;;;0.70;;
3895;SDS011;1963;48.804;8.358;2022-07-12T08:20:21;3.93;;;0.67;;
3895;SDS011;1963;48.804;8.358;2022-07-12T08:23:09;1.30;;;0.70;;
3895;SDS011;1963;48.804;8.358;2022-07-12T08:25:38;0.80;;;0.60;;
3895;SDS011;1963;48.804;8.358;2022-07-12T08:28:06;3.10;;;0.60;;
3895;SDS011;1963;48.804;8.358;2022-07-12T08:30:34;1.10;;;0.70;;
3895;SDS011;1963;48.804;8.358;2022-07-12T08:33:12;1.13;;;0.73;;
3895;SDS011;1963;48.804;8.358;2022-07-12T08:35:40;0.80;;;0.60;;
3895;SDS011;1963;48.804;8.358;2022-07-12T08:38:12;2.77;;;0.93;;
3895;SDS011;1963;48.804;8.358;2022-07-12T08:40:41;1.63;;;0.80;;
3895;SDS011;1963;48.804;8.358;2022-07-12T08:43:09;1.47;;;0.83;;
3895;SDS011;1963;48.804;8.358;2022-07-12T08:45:37;0.90;;;0.60;;
3895;SDS011;1963;48.804;8.358;2022-07-12T08:48:09;2.03;;;0.60;;
3895;SDS011;1963;48.804;8.358;2022-07-12T08:50:38;0.83;;;0.60;;
3895;SDS011;1963;48.804;8.358;2022-07-12T08:53:10;8.43;;;0.87;;
3895;SDS011;1963;48.804;8.358;2022-07-12T08:55:39;1.37;;;0.60;;
3895;SDS011;1963;48.804;8.358;2022-07-12T08:58:16;1.27;;;0.70;;
3895;SDS011;1963;48.804;8.358;2022-07-12T09:00:45;3.57;;;1.03;;
3895;SDS011;1963;48.804;8.358;2022-07-12T09:03:16;1.37;;;0.80;;
3895;SDS011;1963;48.804;8.358;2022-07-12T09:05:50;2.80;;;0.73;;
3895;SDS011;1963;48.804;8.358;2022-07-12T09:08:29;1.53;;;0.77;;
3895;SDS011;1963;48.804;8.358;2022-07-12T09:11:00;3.60;;;0.77;;
3895;SDS011;1963;48.804;8.358;2022-07-12T09:13:45;1.97;;;0.73;;
3895;SDS011;1963;48.804;8.358;2022-07-12T09:16:18;1.70;;;0.80;;
3895;SDS011;1963;48.804;8.358;2022-07-12T09:18:47;1.93;;;0.90;;
3895;SDS011;1963;48.804;8.358;2022-07-12T09:21:24;1.33;;;0.90;;
3895;SDS011;1963;48.804;8.358;2022-07-12T09:23:53;1.33;;;0.63;;
3895;SDS011;1963;48.804;8.358;2022-07-12T09:26:22;6.43;;;1.07;;
3895;SDS011;1963;48.804;8.358;2022-07-12T09:28:51;1.07;;;0.80;;
3895;SDS011;1963;48.804;8.358;2022-07-12T09:31:19;2.90;;;0.63;;
3895;SDS011;1963;48.804;8.358;2022-07-12T09:36:55;1.90;;;0.70;;
3895;SDS011;1963;48.804;8.358;2022-07-12T09:39:24;7.73;;;0.70;;
3895;SDS011;1963;48.804;8.358;2022-07-12T09:41:53;1.63;;;0.63;;
3895;SDS011;1963;48.804;8.358;2022-07-12T09:44:25;2.70;;;0.80;;
3895;SDS011;1963;48.804;8.358;2022-07-12T09:46:57;1.67;;;0.70;;
3895;SDS011;1963;48.804;8.358;2022-07-12T09:49:28;1.17;;;0.60;;
3895;SDS011;1963;48.804;8.358;2022-07-12T09:51:57;0.83;;;0.50;;
3895;SDS011;1963;48.804;8.358;2022-07-12T09:54:27;5.50;;;0.60;;
3895;SDS011;1963;48.804;8.358;2022-07-12T09:56:58;3.70;;;0.80;;
3895;SDS011;1963;48.804;8.358;2022-07-12T09:59:28;1.10;;;0.60;;
3895;SDS011;1963;48.804;8.358;2022-07-12T10:01:56;1.00;;;0.70;;
3895;SDS011;1963;48.804;8.358;2022-07-12T10:04:32;2.03;;;0.77;;
3895;SDS011;1963;48.804;8.358;2022-07-12T10:07:02;6.93;;;0.80;;
3895;SDS011;1963;48.804;8.358;2022-07-12T10:09:31;3.63;;;0.80;;
3895;SDS011;1963;48.804;8.358;2022-07-12T10:12:00;1.00;;;0.60;;
3895;SDS011;1963;48.804;8.358;2022-07-12T10:14:37;1.73;;;0.80;;
3895;SDS011;1963;48.804;8.358;2022-07-12T10:17:06;2.10;;;0.60;;
3895;SDS011;1963;48.804;8.358;2022-07-12T10:19:36;2.83;;;0.60;;
3895;SDS011;1963;48.804;8.358;2022-07-12T10:22:07;1.33;;;0.60;;
3895;SDS011;1963;48.804;8.358;2022-07-12T10:24:50;2.50;;;0.60;;
3895;SDS011;1963;48.804;8.358;2022-07-12T10:27:33;1.00;;;0.73;;
3895;SDS011;1963;48.804;8.358;2022-07-12T10:30:14;0.90;;;0.63;;
3895;SDS011;1963;48.804;8.358;2022-07-12T10:32:44;1.20;;;0.60;;
3895;SDS011;1963;48.804;8.358;2022-07-12T10:35:14;1.30;;;0.83;;
3895;SDS011;1963;48.804;8.358;2022-07-12T10:40:45;1.37;;;0.70;;
3895;SDS011;1963;48.804;8.358;2022-07-12T10:43:18;1.17;;;0.70;;
3895;SDS011;1963;48.804;8.358;2022-07-12T10:46:13;2.23;;;0.80;;
3895;SDS011;1963;48.804;8.358;2022-07-12T10:48:45;0.90;;;0.70;;
3895;SDS011;1963;48.804;8.358;2022-07-12T10:51:14;1.30;;;1.00;;
3895;SDS011;1963;48.804;8.358;2022-07-12T10:53:47;1.87;;;0.80;;
3895;SDS011;1963;48.804;8.358;2022-07-12T10:56:17;0.93;;;0.60;;
3895;SDS011;1963;48.804;8.358;2022-07-12T10:58:54;1.57;;;0.50;;
3895;SDS011;1963;48.804;8.358;2022-07-12T11:01:25;1.00;;;0.60;;
3895;SDS011;1963;48.804;8.358;2022-07-12T11:03:54;1.73;;;0.60;;
3895;SDS011;1963;48.804;8.358;2022-07-12T11:06:24;1.10;;;0.50;;
3895;SDS011;1963;48.804;8.358;2022-07-12T11:08:58;1.43;;;0.70;;
3895;SDS011;1963;48.804;8.358;2022-07-12T11:11:29;0.83;;;0.53;;
3895;SDS011;1963;48.804;8.358;2022-07-12T11:13:58;2.10;;;0.97;;
3895;SDS011;1963;48.804;8.358;2022-07-12T11:16:28;0.87;;;0.53;;
3895;SDS011;1963;48.804;8.358;2022-07-12T11:18:57;1.43;;;0.50;;
3895;SDS011;1963;48.804;8.358;2022-07-12T11:21:25;1.13;;;0.50;;
3895;SDS011;1963;48.804;8.358;2022-07-12T11:23:53;0.90;;;0.60;;
3895;SDS011;1963;48.804;8.358;2022-07-12T11:26:22;2.93;;;0.70;;
3895;SDS011;1963;48.804;8.358;2022-07-12T11:28:50;1.10;;;0.63;;
3895;SDS011;1963;48.804;8.358;2022-07-12T11:31:18;2.30;;;0.70;;
3895;SDS011;1963;48.804;8.358;2022-07-12T11:33:48;1.10;;;0.70;;
3895;SDS011;1963;48.804;8.358;2022-07-12T11:36:17;1.03;;;0.60;;
3895;SDS011;1963;48.804;8.358;2022-07-12T11:38:46;3.53;;;0.70;;
3895;SDS011;1963;48.804;8.358;2022-07-12T11:41:14;2.50;;;0.60;;
3895;SDS011;1963;48.804;8.358;2022-07-12T11:43:43;0.90;;;0.60;;
3895;SDS011;1963;48.804;8.358;2022-07-12T11:46:12;1.13;;;0.60;;
3895;SDS011;1963;48.804;8.358;2022-07-12T11:48:42;1.00;;;0.50;;
3895;SDS011;1963;48.804;8.358;2022-07-12T11:51:13;0.90;;;0.60;;
3895;SDS011;1963;48.804;8.358;2022-07-12T11:53:41;1.00;;;0.67;;
3895;SDS011;1963;48.804;8.358;2022-07-12T11:56:09;1.23;;;0.53;;
3895;SDS011;1963;48.804;8.358;2022-07-12T11:58:38;0.80;;;0.50;;
3895;SDS011;1963;48.804;8.358;2022-07-12T12:01:10;0.83;;;0.50;;
3895;SDS011;1963;48.804;8.358;2022-07-12T12:03:42;2.70;;;0.70;;
3895;SDS011;1963;48.804;8.358;2022-07-12T12:06:11;2.30;;;0.60;;
3895;SDS011;1963;48.804;8.358;2022-07-12T12:08:42;1.03;;;0.60;;
3895;SDS011;1963;48.804;8.358;2022-07-12T12:11:11;1.20;;;0.60;;
3895;SDS011;1963;48.804;8.358;2022-07-12T12:13:40;1.07;;;0.60;;
3895;SDS011;1963;48.804;8.358;2022-07-12T12:16:09;1.30;;;0.80;;
3895;SDS011;1963;48.804;8.358;2022-07-12T12:18:43;1.50;;;0.60;;
3895;SDS011;1963;48.804;8.358;2022-07-12T12:21:12;2.60;;;0.60;;
3895;SDS011;1963;48.804;8.358;2022-07-12T12:23:40;0.90;;;0.50;;
3895;SDS011;1963;48.804;8.358;2022-07-12T12:26:10;6.10;;;0.67;;
3895;SDS011;1963;48.804;8.358;2022-07-12T12:28:44;1.37;;;0.47;;
3895;SDS011;1963;48.804;8.358;2022-07-12T12:31:15;0.90;;;0.40;;
3895;SDS011;1963;48.804;8.358;2022-07-12T12:33:45;1.20;;;0.73;;
3895;SDS011;1963;48.804;8.358;2022-07-12T12:36:17;5.73;;;0.60;;
3895;SDS011;1963;48.804;8.358;2022-07-12T12:38:50;2.70;;;0.57;;
3895;SDS011;1963;48.804;8.358;2022-07-12T12:41:18;1.20;;;0.60;;
3895;SDS011;1963;48.804;8.358;2022-07-12T12:43:55;1.10;;;0.50;;
3895;SDS011;1963;48.804;8.358;2022-07-12T12:49:12;1.00;;;0.40;;
3895;SDS011;1963;48.804;8.358;2022-07-12T12:51:53;1.00;;;0.60;;
3895;SDS011;1963;48.804;8.358;2022-07-12T12:54:32;1.23;;;0.67;;
3895;SDS011;1963;48.804;8.358;2022-07-12T12:57:00;1.50;;;0.67;;
3895;SDS011;1963;48.804;8.358;2022-07-12T12:59:29;1.37;;;0.60;;
3895;SDS011;1963;48.804;8.358;2022-07-12T13:02:02;1.03;;;0.53;;
3895;SDS011;1963;48.804;8.358;2022-07-12T13:04:32;5.00;;;0.63;;
3895;SDS011;1963;48.804;8.358;2022-07-12T13:07:01;1.20;;;0.60;;
3895;SDS011;1963;48.804;8.358;2022-07-12T13:09:36;1.10;;;0.70;;
3895;SDS011;1963;48.804;8.358;2022-07-12T13:12:04;1.73;;;0.60;;
3895;SDS011;1963;48.804;8.358;2022-07-12T13:14:33;1.10;;;0.50;;
3895;SDS011;1963;48.804;8.358;2022-07-12T13:17:03;1.63;;;0.50;;
3895;SDS011;1963;48.804;8.358;2022-07-12T13:19:31;1.20;;;0.67;;
3895;SDS011;1963;48.804;8.358;2022-07-12T13:21:59;1.17;;;0.50;;
3895;SDS011;1963;48.804;8.358;2022-07-12T13:24:27;3.37;;;0.60;;
3895;SDS011;1963;48.804;8.358;2022-07-12T13:26:55;1.43;;;0.60;;
3895;SDS011;1963;48.804;8.358;2022-07-12T13:29:23;2.83;;;0.60;;
3895;SDS011;1963;48.804;8.358;2022-07-12T13:31:51;0.90;;;0.50;;
3895;SDS011;1963;48.804;8.358;2022-07-12T13:34:23;1.30;;;0.70;;
3895;SDS011;1963;48.804;8.358;2022-07-12T13:36:52;2.90;;;0.57;;
3895;SDS011;1963;48.804;8.358;2022-07-12T13:39:21;0.90;;;0.50;;
3895;SDS011;1963;48.804;8.358;2022-07-12T13:42:06;1.60;;;0.60;;
3895;SDS011;1963;48.804;8.358;2022-07-12T13:44:34;2.90;;;0.50;;
3895;SDS011;1963;48.804;8.358;2022-07-12T13:47:02;1.30;;;0.70;;
3895;SDS011;1963;48.804;8.358;2022-07-12T13:49:32;3.27;;;0.53;;
3895;SDS011;1963;48.804;8.358;2022-07-12T13:52:09;3.43;;;0.53;;
3895;SDS011;1963;48.804;8.358;2022-07-12T13:54:47;1.40;;;0.60;;
3895;SDS011;1963;48.804;8.358;2022-07-12T13:57:15;2.63;;;0.60;;
3895;SDS011;1963;48.804;8.358;2022-07-12T13:59:43;1.90;;;0.67;;
3895;SDS011;1963;48.804;8.358;2022-07-12T14:56:24;8.80;;;0.70;;
3895;SDS011;1963;48.804;8.358;2022-07-12T15:05:57;1.93;;;0.70;;
3895;SDS011;1963;48.804;8.358;2022-07-12T15:08:25;1.30;;;0.63;;
3895;SDS011;1963;48.804;8.358;2022-07-12T15:10:53;1.30;;;0.50;;
3895;SDS011;1963;48.804;8.358;2022-07-12T15:13:22;6.90;;;0.63;;
3895;SDS011;1963;48.804;8.358;2022-07-12T15:15:51;0.90;;;0.50;;
3895;SDS011;1963;48.804;8.358;2022-07-12T15:18:19;1.17;;;0.50;;
3895;SDS011;1963;48.804;8.358;2022-07-12T15:20:49;0.90;;;0.50;;
3895;SDS011;1963;48.804;8.358;2022-07-12T15:23:17;1.43;;;0.70;;
3895;SDS011;1963;48.804;8.358;2022-07-12T15:25:46;1.43;;;0.60;;
3895;SDS011;1963;48.804;8.358;2022-07-12T15:28:19;1.20;;;0.80;;
3895;SDS011;1963;48.804;8.358;2022-07-12T15:30:49;1.37;;;0.73;;
3895;SDS011;1963;48.804;8.358;2022-07-12T15:33:18;0.97;;;0.50;;
3895;SDS011;1963;48.804;8.358;2022-07-12T15:35:49;6.00;;;0.60;;
3895;SDS011;1963;48.804;8.358;2022-07-12T15:38:17;2.50;;;0.70;;
3895;SDS011;1963;48.804;8.358;2022-07-12T15:40:45;2.60;;;0.70;;
3895;SDS011;1963;48.804;8.358;2022-07-12T15:43:13;0.90;;;0.47;;
3895;SDS011;1963;48.804;8.358;2022-07-12T15:45:41;5.37;;;0.70;;
3895;SDS011;1963;48.804;8.358;2022-07-12T15:48:11;2.13;;;0.50;;
3895;SDS011;1963;48.804;8.358;2022-07-12T15:50:39;2.90;;;0.83;;
3895;SDS011;1963;48.804;8.358;2022-07-12T15:53:07;0.90;;;0.50;;
3895;SDS011;1963;48.804;8.358;2022-07-12T15:55:54;3.80;;;0.60;;
3895;SDS011;1963;48.804;8.358;2022-07-12T15:58:25;1.30;;;0.80;;
3895;SDS011;1963;48.804;8.358;2022-07-12T16:00:56;1.53;;;0.60;;
3895;SDS011;1963;48.804;8.358;2022-07-12T16:03:27;1.70;;;0.97;;
3895;SDS011;1963;48.804;8.358;2022-07-12T16:05:56;2.07;;;0.60;;
3895;SDS011;1963;48.804;8.358;2022-07-12T16:08:25;1.27;;;0.50;;
3895;SDS011;1963;48.804;8.358;2022-07-12T16:10:59;1.10;;;0.53;;
3895;SDS011;1963;48.804;8.358;2022-07-12T16:13:28;1.40;;;0.60;;
3895;SDS011;1963;48.804;8.358;2022-07-12T16:15:59;1.53;;;0.50;;
3895;SDS011;1963;48.804;8.358;2022-07-12T16:18:29;1.50;;;0.90;;
3895;SDS011;1963;48.804;8.358;2022-07-12T16:20:58;2.70;;;0.50;;
3895;SDS011;1963;48.804;8.358;2022-07-12T16:23:27;2.20;;;0.70;;
3895;SDS011;1963;48.804;8.358;2022-07-12T16:25:56;4.10;;;0.70;;
3895;SDS011;1963;48.804;8.358;2022-07-12T16:28:29;1.40;;;0.60;;
3895;SDS011;1963;48.804;8.358;2022-07-12T16:30:57;1.27;;;0.70;;
3895;SDS011;1963;48.804;8.358;2022-07-12T16:33:25;3.23;;;0.60;;
3895;SDS011;1963;48.804;8.358;2022-07-12T16:35:54;1.77;;;0.50;;
3895;SDS011;1963;48.804;8.358;2022-07-12T16:38:23;2.30;;;0.90;;
3895;SDS011;1963;48.804;8.358;2022-07-12T16:40:51;7.80;;;0.70;;
3895;SDS011;1963;48.804;8.358;2022-07-12T16:43:20;2.70;;;0.67;;
3895;SDS011;1963;48.804;8.358;2022-07-12T16:45:48;1.00;;;0.60;;
3895;SDS011;1963;48.804;8.358;2022-07-12T16:48:16;1.63;;;0.60;;
3895;SDS011;1963;48.804;8.358;2022-07-12T16:50:45;1.40;;;0.60;;
3895;SDS011;1963;48.804;8.358;2022-07-12T16:53:34;1.10;;;0.60;;